sensor_id;sensor_type;location;lat;lon;timestamp;pressure;altitude;pressure_sealevel;temperature;humidity
58092;BME280;43896;48.178;11.578;2022-08-01T00:00:20;95841.25;;;23.52;48.11
58092;BME280;43896;48.178;11.578;2022-08-01T00:02:46;95855.00;;;23.56;47.98
58092;BME280;43896;48.178;11.578;2022-08-01T00:05:11;95848.50;;;23.52;47.82
58092;BME280;43896;48.178;11.578;2022-08-01T00:07:38;95848.84;;;23.55;48.20
58092;BME280;43896;48.178;11.578;2022-08-01T00:10:05;95864.19;;;23.60;48.18
58092;BME280;43896;48.178;11.578;2022-08-01T00:12:31;95867.38;;;23.57;48.21
58092;BME280;43896;48.178;11.578;2022-08-01T00:14:56;95851.66;;;23.49;48.22
58092;BME280;43896;48.178;11.578;2022-08-01T00:17:21;95857.13;;;23.54;48.30
58092;BME280;43896;48.178;11.578;2022-08-01T00:19:47;95862.97;;;23.51;48.25
58092;BME280;43896;48.178;11.578;2022-08-01T00:22:12;95866.59;;;23.45;48.53
58092;BME280;43896;48.178;11.578;2022-08-01T00:24:37;95844.00;;;23.29;48.70
58092;BME280;43896;48.178;11.578;2022-08-01T00:27:03;95855.88;;;23.33;48.91
58092;BME280;43896;48.178;11.578;2022-08-01T00:29:29;95853.09;;;23.28;48.83
58092;BME280;43896;48.178;11.578;2022-08-01T00:31:54;95860.09;;;23.29;48.86
58092;BME280;43896;48.178;11.578;2022-08-01T00:34:19;95836.81;;;23.17;48.87
58092;BME280;43896;48.178;11.578;2022-08-01T00:36:45;95861.31;;;23.21;48.70
58092;BME280;43896;48.178;11.578;2022-08-01T00:39:11;95865.50;;;23.17;49.05
58092;BME280;43896;48.178;11.578;2022-08-01T00:41:37;95853.63;;;23.13;49.33
58092;BME280;43896;48.178;11.578;2022-08-01T00:44:04;95869.50;;;23.14;48.92
58092;BME280;43896;48.178;11.578;2022-08-01T00:46:29;95854.31;;;23.08;48.98
58092;BME280;43896;48.178;11.578;2022-08-01T00:48:55;95843.13;;;22.99;49.19
58092;BME280;43896;48.178;11.578;2022-08-01T00:51:22;95851.41;;;22.98;49.43
58092;BME280;43896;48.178;11.578;2022-08-01T00:53:49;95831.38;;;22.89;49.17
58092;BME280;43896;48.178;11.578;2022-08-01T00:56:15;95858.41;;;22.99;49.85
58092;BME280;43896;48.178;11.578;2022-08-01T00:58:40;95860.97;;;22.94;49.46
58092;BME280;43896;48.178;11.578;2022-08-01T01:01:06;95859.22;;;22.88;49.16
58092;BME280;43896;48.178;11.578;2022-08-01T01:03:31;95870.63;;;22.95;49.24
58092;BME280;43896;48.178;11.578;2022-08-01T01:06:18;95852.38;;;22.68;49.81
58092;BME280;43896;48.178;11.578;2022-08-01T01:09:07;95862.03;;;22.81;49.53
58092;BME280;43896;48.178;11.578;2022-08-01T01:11:54;95861.22;;;22.69;49.89
58092;BME280;43896;48.178;11.578;2022-08-01T01:14:44;95850.50;;;22.69;49.67
58092;BME280;43896;48.178;11.578;2022-08-01T01:17:14;95842.47;;;22.69;49.37
58092;BME280;43896;48.178;11.578;2022-08-01T01:19:46;95869.72;;;22.77;49.63
58092;BME280;43896;48.178;11.578;2022-08-01T01:31:36;95864.72;;;22.69;48.94
58092;BME280;43896;48.178;11.578;2022-08-01T01:34:05;95869.28;;;22.69;49.02
58092;BME280;43896;48.178;11.578;2022-08-01T01:36:33;95858.78;;;22.67;49.17
58092;BME280;43896;48.178;11.578;2022-08-01T01:39:00;95856.81;;;22.62;49.19
58092;BME280;43896;48.178;11.578;2022-08-01T01:41:26;95839.56;;;22.46;49.23
58092;BME280;43896;48.178;11.578;2022-08-01T01:43:53;95871.59;;;22.53;49.43
58092;BME280;43896;48.178;11.578;2022-08-01T01:46:22;95874.88;;;22.55;49.97
58092;BME280;43896;48.178;11.578;2022-08-01T01:48:50;95847.94;;;22.38;49.57
58092;BME280;43896;48.178;11.578;2022-08-01T01:51:16;95858.19;;;22.41;49.58
58092;BME280;43896;48.178;11.578;2022-08-01T01:53:43;95855.28;;;22.31;49.64
58092;BME280;43896;48.178;11.578;2022-08-01T01:56:10;95863.44;;;22.36;49.62
58092;BME280;43896;48.178;11.578;2022-08-01T01:58:37;95871.25;;;22.50;49.69
58092;BME280;43896;48.178;11.578;2022-08-01T02:01:06;95860.75;;;22.36;49.70
58092;BME280;43896;48.178;11.578;2022-08-01T02:03:34;95873.25;;;22.42;49.47
58092;BME280;43896;48.178;11.578;2022-08-01T02:06:02;95867.41;;;22.34;49.65
58092;BME280;43896;48.178;11.578;2022-08-01T02:08:29;95885.34;;;22.45;49.41
58092;BME280;43896;48.178;11.578;2022-08-01T02:10:56;95881.84;;;22.44;49.62
58092;BME280;43896;48.178;11.578;2022-08-01T02:13:41;95885.94;;;22.47;49.77
58092;BME280;43896;48.178;11.578;2022-08-01T02:16:08;95869.03;;;22.35;49.44
58092;BME280;43896;48.178;11.578;2022-08-01T02:18:36;95858.19;;;22.29;49.73
58092;BME280;43896;48.178;11.578;2022-08-01T02:21:04;95880.69;;;22.40;49.58
58092;BME280;43896;48.178;11.578;2022-08-01T02:23:32;95876.03;;;22.36;49.48
58092;BME280;43896;48.178;11.578;2022-08-01T02:26:00;95889.66;;;22.46;49.05
58092;BME280;43896;48.178;11.578;2022-08-01T02:28:35;95873.34;;;22.36;49.21
58092;BME280;43896;48.178;11.578;2022-08-01T02:31:04;95873.00;;;22.32;49.43
58092;BME280;43896;48.178;11.578;2022-08-01T02:33:38;95866.47;;;22.28;49.66
58092;BME280;43896;48.178;11.578;2022-08-01T02:36:04;95866.91;;;22.25;49.08
58092;BME280;43896;48.178;11.578;2022-08-01T02:38:33;95867.94;;;22.24;49.26
58092;BME280;43896;48.178;11.578;2022-08-01T02:41:07;95882.91;;;22.32;49.79
58092;BME280;43896;48.178;11.578;2022-08-01T02:43:40;95862.09;;;22.15;49.45
58092;BME280;43896;48.178;11.578;2022-08-01T02:46:09;95880.88;;;22.27;49.46
58092;BME280;43896;48.178;11.578;2022-08-01T02:48:38;95880.28;;;22.13;49.58
58092;BME280;43896;48.178;11.578;2022-08-01T02:51:07;95882.28;;;22.18;49.40
58092;BME280;43896;48.178;11.578;2022-08-01T02:53:34;95861.03;;;22.04;49.78
58092;BME280;43896;48.178;11.578;2022-08-01T02:56:04;95870.13;;;22.03;49.65
58092;BME280;43896;48.178;11.578;2022-08-01T02:58:32;95867.09;;;22.00;49.36
58092;BME280;43896;48.178;11.578;2022-08-01T03:00:58;95877.69;;;22.06;49.48
58092;BME280;43896;48.178;11.578;2022-08-01T03:03:24;95891.56;;;22.15;49.38
58092;BME280;43896;48.178;11.578;2022-08-01T03:05:50;95868.25;;;21.92;49.45
58092;BME280;43896;48.178;11.578;2022-08-01T03:08:16;95904.59;;;22.12;49.56
58092;BME280;43896;48.178;11.578;2022-08-01T03:10:44;95904.25;;;22.08;49.65
58092;BME280;43896;48.178;11.578;2022-08-01T03:13:11;95892.22;;;21.99;49.78
58092;BME280;43896;48.178;11.578;2022-08-01T03:15:39;95905.75;;;22.04;49.64
58092;BME280;43896;48.178;11.578;2022-08-01T03:18:06;95878.69;;;21.82;49.56
58092;BME280;43896;48.178;11.578;2022-08-01T03:20:33;95902.13;;;21.98;49.96
58092;BME280;43896;48.178;11.578;2022-08-01T03:23:01;95904.22;;;21.96;49.82
58092;BME280;43896;48.178;11.578;2022-08-01T03:25:29;95907.69;;;21.97;49.90
58092;BME280;43896;48.178;11.578;2022-08-01T03:27:59;95895.09;;;21.85;50.22
58092;BME280;43896;48.178;11.578;2022-08-01T03:30:28;95918.06;;;21.93;50.04
58092;BME280;43896;48.178;11.578;2022-08-01T03:32:55;95914.78;;;21.91;49.87
58092;BME280;43896;48.178;11.578;2022-08-01T03:35:22;95910.03;;;21.93;49.95
58092;BME280;43896;48.178;11.578;2022-08-01T03:37:51;95900.69;;;21.84;49.90
58092;BME280;43896;48.178;11.578;2022-08-01T03:40:23;95902.78;;;21.82;49.77
58092;BME280;43896;48.178;11.578;2022-08-01T03:42:54;95920.59;;;21.88;50.12
58092;BME280;43896;48.178;11.578;2022-08-01T03:45:24;95922.09;;;21.84;49.90
58092;BME280;43896;48.178;11.578;2022-08-01T03:47:56;95905.78;;;21.73;49.81
58092;BME280;43896;48.178;11.578;2022-08-01T03:50:23;95907.63;;;21.73;50.12
58092;BME280;43896;48.178;11.578;2022-08-01T03:52:51;95895.38;;;21.65;49.97
58092;BME280;43896;48.178;11.578;2022-08-01T03:55:17;95909.41;;;21.61;50.80
58092;BME280;43896;48.178;11.578;2022-08-01T03:57:44;95919.25;;;21.67;50.14
58092;BME280;43896;48.178;11.578;2022-08-01T04:00:10;95910.84;;;21.63;50.55
58092;BME280;43896;48.178;11.578;2022-08-01T04:02:36;95933.56;;;21.72;50.51
58092;BME280;43896;48.178;11.578;2022-08-01T04:05:03;95911.88;;;21.62;50.45
58092;BME280;43896;48.178;11.578;2022-08-01T04:07:31;95917.94;;;21.58;50.89
58092;BME280;43896;48.178;11.578;2022-08-01T04:09:58;95922.44;;;21.57;50.80
58092;BME280;43896;48.178;11.578;2022-08-01T04:12:23;95912.66;;;21.51;50.99
58092;BME280;43896;48.178;11.578;2022-08-01T04:14:49;95924.31;;;21.57;50.91
58092;BME280;43896;48.178;11.578;2022-08-01T04:17:16;95906.53;;;21.44;51.08
58092;BME280;43896;48.178;11.578;2022-08-01T04:19:42;95936.13;;;21.49;51.12
58092;BME280;43896;48.178;11.578;2022-08-01T04:22:13;95915.25;;;21.39;51.12
58092;BME280;43896;48.178;11.578;2022-08-01T04:24:39;95919.72;;;21.27;50.99
58092;BME280;43896;48.178;11.578;2022-08-01T04:27:11;95949.94;;;21.46;51.16
58092;BME280;43896;48.178;11.578;2022-08-01T04:29:39;95957.94;;;21.52;51.33
58092;BME280;43896;48.178;11.578;2022-08-01T04:32:31;95961.63;;;21.51;50.92
58092;BME280;43896;48.178;11.578;2022-08-01T04:34:59;95942.09;;;21.51;50.95
58092;BME280;43896;48.178;11.578;2022-08-01T04:43:27;95961.75;;;21.75;50.78
58092;BME280;43896;48.178;11.578;2022-08-01T04:57:17;95958.38;;;21.80;49.95
58092;BME280;43896;48.178;11.578;2022-08-01T05:31:40;95958.97;;;22.31;49.12
58092;BME280;43896;48.178;11.578;2022-08-01T05:46:08;96009.09;;;22.54;48.42
58092;BME280;43896;48.178;11.578;2022-08-01T05:48:54;95975.69;;;22.26;48.19
58092;BME280;43896;48.178;11.578;2022-08-01T05:54:06;95990.66;;;22.34;48.17
58092;BME280;43896;48.178;11.578;2022-08-01T05:56:50;95989.66;;;22.16;49.01
58092;BME280;43896;48.178;11.578;2022-08-01T10:57:08;95936.38;;;29.61;33.84
58092;BME280;43896;48.178;11.578;2022-08-01T12:10:51;95894.22;;;29.89;31.71
58092;BME280;43896;48.178;11.578;2022-08-01T12:13:16;95915.38;;;29.92;31.58
58092;BME280;43896;48.178;11.578;2022-08-01T12:15:45;95880.88;;;29.43;32.98
58092;BME280;43896;48.178;11.578;2022-08-01T12:18:11;95893.31;;;29.54;33.38
58092;BME280;43896;48.178;11.578;2022-08-01T12:21:03;95888.13;;;30.13;31.14
58092;BME280;43896;48.178;11.578;2022-08-01T12:46:09;95850.38;;;29.77;32.04
58092;BME280;43896;48.178;11.578;2022-08-01T13:13:16;95868.59;;;28.19;34.18
58092;BME280;43896;48.178;11.578;2022-08-01T16:01:08;95942.31;;;24.45;58.50
58092;BME280;43896;48.178;11.578;2022-08-01T16:20:10;95959.63;;;24.37;56.02
58092;BME280;43896;48.178;11.578;2022-08-01T16:22:48;95948.78;;;24.32;56.18
58092;BME280;43896;48.178;11.578;2022-08-01T17:03:29;95879.81;;;24.38;52.14
58092;BME280;43896;48.178;11.578;2022-08-01T17:05:54;95852.44;;;24.24;50.39
58092;BME280;43896;48.178;11.578;2022-08-01T17:40:45;95873.84;;;24.52;48.00
58092;BME280;43896;48.178;11.578;2022-08-01T17:50:55;95895.94;;;24.38;48.80
58092;BME280;43896;48.178;11.578;2022-08-01T17:53:20;95894.81;;;24.33;49.61
58092;BME280;43896;48.178;11.578;2022-08-01T17:55:48;95910.03;;;24.45;49.04
58092;BME280;43896;48.178;11.578;2022-08-01T17:58:14;95908.25;;;24.33;49.44
58092;BME280;43896;48.178;11.578;2022-08-01T18:00:41;95921.19;;;24.37;48.98
58092;BME280;43896;48.178;11.578;2022-08-01T18:03:07;95911.50;;;24.36;49.49
58092;BME280;43896;48.178;11.578;2022-08-01T18:05:32;95928.47;;;24.36;48.39
58092;BME280;43896;48.178;11.578;2022-08-01T18:08:00;95936.16;;;24.32;49.10
58092;BME280;43896;48.178;11.578;2022-08-01T18:10:26;95942.94;;;24.35;49.00
58092;BME280;43896;48.178;11.578;2022-08-01T18:12:51;95937.47;;;24.30;49.40
58092;BME280;43896;48.178;11.578;2022-08-01T18:15:17;95927.28;;;24.32;49.32
58092;BME280;43896;48.178;11.578;2022-08-01T18:17:42;95926.34;;;24.38;49.64
58092;BME280;43896;48.178;11.578;2022-08-01T18:20:08;95923.81;;;24.31;49.23
58092;BME280;43896;48.178;11.578;2022-08-01T18:22:34;95922.91;;;24.43;48.34
58092;BME280;43896;48.178;11.578;2022-08-01T18:25:00;95925.25;;;24.39;47.67
58092;BME280;43896;48.178;11.578;2022-08-01T18:27:26;95934.72;;;24.42;47.16
58092;BME280;43896;48.178;11.578;2022-08-01T18:29:51;95929.25;;;24.37;47.52
58092;BME280;43896;48.178;11.578;2022-08-01T18:32:16;95936.75;;;24.34;49.25
58092;BME280;43896;48.178;11.578;2022-08-01T18:34:42;95944.00;;;24.34;48.89
58092;BME280;43896;48.178;11.578;2022-08-01T18:37:07;95943.19;;;24.33;50.27
58092;BME280;43896;48.178;11.578;2022-08-01T18:39:34;95936.66;;;24.29;50.12
58092;BME280;43896;48.178;11.578;2022-08-01T18:41:59;95928.53;;;24.24;48.68
58092;BME280;43896;48.178;11.578;2022-08-01T18:44:25;95933.47;;;24.32;50.44
58092;BME280;43896;48.178;11.578;2022-08-01T18:46:50;95932.09;;;24.30;49.93
58092;BME280;43896;48.178;11.578;2022-08-01T18:49:16;95930.59;;;24.22;50.01
58092;BME280;43896;48.178;11.578;2022-08-01T18:51:42;95936.06;;;24.27;51.21
58092;BME280;43896;48.178;11.578;2022-08-01T18:54:12;95948.47;;;24.28;50.80
58092;BME280;43896;48.178;11.578;2022-08-01T18:56:38;95941.97;;;24.24;49.90
58092;BME280;43896;48.178;11.578;2022-08-01T18:59:03;95955.88;;;24.21;49.75
58092;BME280;43896;48.178;11.578;2022-08-01T19:01:29;95960.69;;;24.19;49.96
58092;BME280;43896;48.178;11.578;2022-08-01T19:03:54;95965.53;;;24.05;49.31
58092;BME280;43896;48.178;11.578;2022-08-01T19:06:19;95984.00;;;24.02;49.70
58092;BME280;43896;48.178;11.578;2022-08-01T19:08:45;95972.91;;;23.98;50.34
58092;BME280;43896;48.178;11.578;2022-08-01T19:11:10;95982.38;;;24.01;49.68
58092;BME280;43896;48.178;11.578;2022-08-01T19:13:35;96003.81;;;24.12;49.93
58092;BME280;43896;48.178;11.578;2022-08-01T19:16:02;95985.00;;;24.12;51.51
58092;BME280;43896;48.178;11.578;2022-08-01T19:18:38;95990.63;;;24.11;51.43
58092;BME280;43896;48.178;11.578;2022-08-01T19:21:05;95972.72;;;23.76;55.59
58092;BME280;43896;48.178;11.578;2022-08-01T19:23:32;95977.78;;;23.61;57.63
58092;BME280;43896;48.178;11.578;2022-08-01T19:26:21;95989.81;;;23.46;60.27
58092;BME280;43896;48.178;11.578;2022-08-01T19:29:25;95970.75;;;23.07;62.05
58092;BME280;43896;48.178;11.578;2022-08-01T19:31:42;95993.91;;;22.78;63.77
58092;BME280;43896;48.178;11.578;2022-08-01T19:34:10;95994.66;;;22.55;64.89
58092;BME280;43896;48.178;11.578;2022-08-01T19:36:36;95993.63;;;22.25;65.27
58092;BME280;43896;48.178;11.578;2022-08-01T19:39:02;95990.22;;;22.18;66.59
58092;BME280;43896;48.178;11.578;2022-08-01T19:41:27;95988.94;;;22.21;65.59
58092;BME280;43896;48.178;11.578;2022-08-01T19:43:53;95996.97;;;22.21;64.79
58092;BME280;43896;48.178;11.578;2022-08-01T19:46:19;95998.94;;;22.32;65.77
58092;BME280;43896;48.178;11.578;2022-08-01T19:48:48;95998.00;;;22.38;65.24
58092;BME280;43896;48.178;11.578;2022-08-01T19:51:16;96018.44;;;22.51;67.06
58092;BME280;43896;48.178;11.578;2022-08-01T19:53:43;96020.78;;;22.59;65.04
58092;BME280;43896;48.178;11.578;2022-08-01T19:56:18;96017.28;;;22.59;66.31
58092;BME280;43896;48.178;11.578;2022-08-01T19:58:48;96006.91;;;22.51;66.93
58092;BME280;43896;48.178;11.578;2022-08-01T20:01:17;96029.78;;;22.65;67.34
58092;BME280;43896;48.178;11.578;2022-08-01T20:03:45;96048.72;;;22.52;68.03
58092;BME280;43896;48.178;11.578;2022-08-01T20:06:11;96051.03;;;22.48;68.13
58092;BME280;43896;48.178;11.578;2022-08-01T20:08:36;96058.16;;;22.42;67.20
58092;BME280;43896;48.178;11.578;2022-08-01T20:11:04;96057.28;;;22.30;65.41
58092;BME280;43896;48.178;11.578;2022-08-01T20:13:32;96028.56;;;22.00;67.61
58092;BME280;43896;48.178;11.578;2022-08-01T20:15:59;96024.88;;;22.01;68.25
58092;BME280;43896;48.178;11.578;2022-08-01T20:18:24;96033.47;;;22.03;68.60
58092;BME280;43896;48.178;11.578;2022-08-01T20:20:51;96029.03;;;21.97;69.68
58092;BME280;43896;48.178;11.578;2022-08-01T20:23:19;96025.09;;;22.00;67.91
58092;BME280;43896;48.178;11.578;2022-08-01T20:25:48;96027.81;;;22.12;68.39
58092;BME280;43896;48.178;11.578;2022-08-01T20:28:14;95987.22;;;21.96;70.41
58092;BME280;43896;48.178;11.578;2022-08-01T20:30:41;95989.91;;;21.96;69.98
58092;BME280;43896;48.178;11.578;2022-08-01T20:33:09;95991.56;;;21.97;68.37
58092;BME280;43896;48.178;11.578;2022-08-01T20:35:36;96002.41;;;22.02;69.42
58092;BME280;43896;48.178;11.578;2022-08-01T20:38:02;95999.75;;;21.84;71.35
58092;BME280;43896;48.178;11.578;2022-08-01T20:40:29;95996.06;;;21.66;71.42
58092;BME280;43896;48.178;11.578;2022-08-01T20:42:56;96002.13;;;21.73;71.56
58092;BME280;43896;48.178;11.578;2022-08-01T20:45:24;95993.66;;;21.77;71.13
58092;BME280;43896;48.178;11.578;2022-08-01T20:47:50;95986.59;;;21.64;70.58
58092;BME280;43896;48.178;11.578;2022-08-01T20:50:19;96010.91;;;21.81;72.30
58092;BME280;43896;48.178;11.578;2022-08-01T20:53:08;96002.59;;;21.70;71.28
58092;BME280;43896;48.178;11.578;2022-08-01T20:55:45;95992.31;;;21.67;71.68
58092;BME280;43896;48.178;11.578;2022-08-01T20:58:26;95991.88;;;21.70;70.74
58092;BME280;43896;48.178;11.578;2022-08-01T21:07:27;96011.94;;;21.80;68.29
58092;BME280;43896;48.178;11.578;2022-08-01T21:10:09;96024.88;;;21.83;69.77
58092;BME280;43896;48.178;11.578;2022-08-01T21:13:04;96053.81;;;21.92;68.14
58092;BME280;43896;48.178;11.578;2022-08-01T21:20:59;96020.72;;;21.68;68.67
58092;BME280;43896;48.178;11.578;2022-08-01T21:26:44;96055.69;;;21.73;67.66
58092;BME280;43896;48.178;11.578;2022-08-01T21:29:11;96092.09;;;21.93;68.40
58092;BME280;43896;48.178;11.578;2022-08-01T21:31:40;96098.38;;;21.87;66.75
58092;BME280;43896;48.178;11.578;2022-08-01T21:34:08;96091.28;;;21.74;66.50
58092;BME280;43896;48.178;11.578;2022-08-01T21:36:34;96113.00;;;21.66;65.72
58092;BME280;43896;48.178;11.578;2022-08-01T21:39:04;96122.88;;;21.65;65.98
58092;BME280;43896;48.178;11.578;2022-08-01T21:41:32;96126.81;;;21.38;66.47
58092;BME280;43896;48.178;11.578;2022-08-01T21:44:03;96140.34;;;21.43;66.69
58092;BME280;43896;48.178;11.578;2022-08-01T21:46:29;96113.06;;;21.34;66.72
58092;BME280;43896;48.178;11.578;2022-08-01T21:48:56;96107.94;;;21.32;66.22
58092;BME280;43896;48.178;11.578;2022-08-01T21:54:03;96133.66;;;21.33;67.02
58092;BME280;43896;48.178;11.578;2022-08-01T21:57:00;96109.72;;;21.13;68.53
58092;BME280;43896;48.178;11.578;2022-08-01T22:00:08;96106.25;;;21.13;68.30
58092;BME280;43896;48.178;11.578;2022-08-01T22:05:50;96103.91;;;21.23;67.70
58092;BME280;43896;48.178;11.578;2022-08-01T22:08:39;96105.53;;;20.99;66.26
58092;BME280;43896;48.178;11.578;2022-08-01T22:11:13;96123.31;;;21.12;66.14
58092;BME280;43896;48.178;11.578;2022-08-01T22:13:40;96112.13;;;20.96;65.11
58092;BME280;43896;48.178;11.578;2022-08-01T22:16:08;96115.78;;;21.02;65.51
58092;BME280;43896;48.178;11.578;2022-08-01T22:18:34;96109.09;;;20.86;65.25
58092;BME280;43896;48.178;11.578;2022-08-01T22:21:01;96108.72;;;20.83;65.58
58092;BME280;43896;48.178;11.578;2022-08-01T22:23:28;96120.31;;;20.70;65.81
58092;BME280;43896;48.178;11.578;2022-08-01T22:25:54;96075.66;;;20.38;65.91
58092;BME280;43896;48.178;11.578;2022-08-01T22:28:21;96077.25;;;20.46;67.20
58092;BME280;43896;48.178;11.578;2022-08-01T22:30:51;96086.31;;;20.45;67.20
58092;BME280;43896;48.178;11.578;2022-08-01T22:33:17;96091.66;;;20.45;67.16
58092;BME280;43896;48.178;11.578;2022-08-01T22:35:48;96067.50;;;20.27;67.31
58092;BME280;43896;48.178;11.578;2022-08-01T22:38:16;96083.97;;;20.23;67.64
58092;BME280;43896;48.178;11.578;2022-08-01T22:40:47;96086.44;;;20.18;69.27
58092;BME280;43896;48.178;11.578;2022-08-01T22:43:41;96066.66;;;19.88;67.54
58092;BME280;43896;48.178;11.578;2022-08-01T22:48:50;96068.69;;;19.85;68.69
58092;BME280;43896;48.178;11.578;2022-08-01T22:51:31;96091.84;;;20.05;67.73
58092;BME280;43896;48.178;11.578;2022-08-01T22:54:06;96058.47;;;19.82;67.87
58092;BME280;43896;48.178;11.578;2022-08-01T22:56:45;96067.69;;;19.73;69.27
58092;BME280;43896;48.178;11.578;2022-08-01T22:59:33;96063.00;;;19.68;69.50
58092;BME280;43896;48.178;11.578;2022-08-01T23:02:02;96070.34;;;19.80;68.57
58092;BME280;43896;48.178;11.578;2022-08-01T23:04:33;96087.38;;;19.85;68.50
58092;BME280;43896;48.178;11.578;2022-08-01T23:07:05;96062.34;;;19.73;69.02
58092;BME280;43896;48.178;11.578;2022-08-01T23:09:33;96053.34;;;19.61;69.26
58092;BME280;43896;48.178;11.578;2022-08-01T23:12:02;96046.00;;;19.49;69.93
58092;BME280;43896;48.178;11.578;2022-08-01T23:14:33;96061.13;;;19.69;69.39
58092;BME280;43896;48.178;11.578;2022-08-01T23:16:59;96056.41;;;19.71;68.87
58092;BME280;43896;48.178;11.578;2022-08-01T23:19:30;96064.03;;;19.74;69.68
58092;BME280;43896;48.178;11.578;2022-08-01T23:21:59;96059.69;;;19.66;69.88
58092;BME280;43896;48.178;11.578;2022-08-01T23:24:30;96063.59;;;19.77;68.97
58092;BME280;43896;48.178;11.578;2022-08-01T23:26:59;96073.22;;;19.78;70.06
58092;BME280;43896;48.178;11.578;2022-08-01T23:29:46;96059.47;;;19.68;70.38
58092;BME280;43896;48.178;11.578;2022-08-01T23:32:12;96046.16;;;19.61;69.57
58092;BME280;43896;48.178;11.578;2022-08-01T23:34:40;96056.63;;;19.76;69.36
58092;BME280;43896;48.178;11.578;2022-08-01T23:37:06;96062.97;;;19.75;69.55
58092;BME280;43896;48.178;11.578;2022-08-01T23:39:36;96040.00;;;19.74;68.59
58092;BME280;43896;48.178;11.578;2022-08-01T23:42:10;96054.34;;;19.80;68.26
58092;BME280;43896;48.178;11.578;2022-08-01T23:44:43;96050.06;;;19.79;67.61
58092;BME280;43896;48.178;11.578;2022-08-01T23:47:11;96050.25;;;19.77;68.19
58092;BME280;43896;48.178;11.578;2022-08-01T23:49:36;96056.19;;;19.79;68.41
58092;BME280;43896;48.178;11.578;2022-08-01T23:52:05;96045.31;;;19.81;68.12
58092;BME280;43896;48.178;11.578;2022-08-01T23:54:31;96073.00;;;19.93;69.21
58092;BME280;43896;48.178;11.578;2022-08-01T23:56:59;96057.25;;;19.65;69.84
58092;BME280;43896;48.178;11.578;2022-08-01T23:59:33;96049.22;;;19.72;69.40
